createdAt,value
2023-04-07T00:01:50.298Z,8.98
2023-04-07T00:04:18.710Z,6.18
2023-04-07T00:06:46.980Z,9.77
2023-04-07T00:09:15.058Z,11.23
2023-04-07T00:11:43.134Z,8.98
2023-04-07T00:14:11.412Z,4.53
2023-04-07T00:16:39.522Z,7.07
2023-04-07T00:19:09.095Z,10.23
2023-04-07T00:21:37.150Z,7.13
2023-04-07T00:24:05.674Z,4.63
2023-04-07T00:26:33.878Z,8.38
2023-04-07T00:29:02.018Z,7.07
2023-04-07T00:31:30.258Z,7.57
2023-04-07T00:33:58.785Z,5.47
2023-04-07T00:36:28.850Z,17.30
2023-04-07T00:38:56.981Z,17.45
2023-04-07T00:41:25.068Z,11.68
2023-04-07T00:43:53.687Z,9.55
2023-04-07T00:46:24.564Z,6.50
2023-04-07T00:48:52.774Z,3.90
2023-04-07T00:51:22.449Z,7.35
2023-04-07T00:53:51.977Z,18.00
2023-04-07T00:56:20.145Z,4.28
2023-04-07T00:58:48.523Z,6.70
2023-04-07T01:01:20.420Z,5.80
2023-04-07T01:03:58.796Z,8.48
2023-04-07T01:06:32.083Z,8.65
2023-04-07T01:09:06.312Z,7.72
2023-04-07T01:11:42.088Z,9.40
2023-04-07T01:14:12.554Z,9.73
2023-04-07T01:16:44.292Z,15.20
2023-04-07T01:19:18.094Z,10.52
2023-04-07T01:21:48.130Z,15.95
2023-04-07T01:24:43.748Z,10.13
2023-04-07T01:27:21.708Z,15.43
2023-04-07T01:29:53.542Z,14.57
2023-04-07T01:32:22.886Z,16.92
2023-04-07T01:34:53.685Z,17.17
2023-04-07T01:37:23.118Z,13.60
2023-04-07T01:39:51.360Z,13.80
2023-04-07T01:42:21.392Z,10.63
2023-04-07T01:44:52.454Z,13.18
2023-04-07T01:47:20.948Z,11.20
2023-04-07T01:49:51.131Z,19.63
2023-04-07T01:52:19.450Z,15.63
2023-04-07T01:54:47.996Z,17.70
2023-04-07T01:57:16.487Z,13.05
2023-04-07T01:59:44.670Z,13.40
2023-04-07T02:02:14.376Z,17.38
2023-04-07T02:04:53.847Z,15.55
2023-04-07T02:07:26.305Z,8.00
2023-04-07T02:09:57.907Z,12.57
2023-04-07T02:14:56.913Z,6.53
2023-04-07T02:17:28.345Z,4.63
2023-04-07T02:19:59.291Z,6.13
2023-04-07T02:22:28.292Z,4.45
2023-04-07T02:24:56.401Z,8.52
2023-04-07T02:27:24.540Z,4.80
2023-04-07T02:29:52.606Z,5.45
2023-04-07T02:32:20.827Z,5.80
2023-04-07T02:34:50.309Z,4.35
2023-04-07T02:37:18.617Z,5.13
2023-04-07T02:39:46.783Z,7.95
2023-04-07T02:42:14.874Z,5.05
2023-04-07T02:44:42.974Z,4.22
2023-04-07T02:47:11.232Z,3.97
2023-04-07T02:49:39.297Z,4.13
2023-04-07T02:52:08.895Z,3.58
2023-04-07T02:54:37.449Z,3.70
2023-04-07T02:57:05.946Z,4.35
2023-04-07T02:59:34.170Z,3.03
2023-04-07T03:02:02.537Z,4.25
2023-04-07T03:04:31.821Z,4.07
2023-04-07T03:07:00.055Z,3.25
2023-04-07T03:09:29.598Z,6.20
2023-04-07T03:11:58.501Z,3.70
2023-04-07T03:14:26.872Z,6.97
2023-04-07T03:16:54.997Z,4.80
2023-04-07T03:19:23.315Z,3.03
2023-04-07T03:21:51.756Z,3.40
2023-04-07T03:24:19.991Z,8.05
2023-04-07T03:26:49.681Z,3.08
2023-04-07T03:29:17.808Z,3.45
2023-04-07T03:31:46.633Z,6.68
2023-04-07T03:34:14.794Z,5.93
2023-04-07T03:36:43.050Z,7.95
2023-04-07T03:39:11.226Z,4.55
2023-04-07T03:41:39.351Z,3.53
2023-04-07T03:44:08.958Z,6.38
2023-04-07T03:46:37.261Z,5.50
2023-04-07T03:49:05.376Z,5.25
2023-04-07T03:51:34.208Z,6.93
2023-04-07T03:54:02.343Z,3.38
2023-04-07T03:56:30.487Z,5.55
2023-04-07T03:58:58.646Z,5.45
2023-04-07T04:01:28.283Z,6.45
2023-04-07T04:03:56.806Z,2.53
2023-04-07T04:06:25.222Z,2.33
2023-04-07T04:08:53.540Z,2.70
2023-04-07T04:11:22.282Z,7.47
2023-04-07T04:13:50.466Z,2.75
2023-04-07T04:16:18.718Z,4.30
2023-04-07T04:18:48.316Z,2.83
2023-04-07T04:21:16.608Z,4.22
2023-04-07T04:23:44.867Z,2.25
2023-04-07T04:26:12.971Z,9.05
2023-04-07T04:28:41.076Z,10.45
2023-04-07T04:31:09.307Z,12.70
2023-04-07T04:33:37.406Z,4.68
2023-04-07T04:36:07.804Z,7.85
2023-04-07T04:38:36.033Z,4.45
2023-04-07T04:41:04.138Z,5.43
2023-04-07T04:43:32.316Z,4.13
2023-04-07T04:46:00.466Z,5.80
2023-04-07T04:48:28.653Z,7.25
2023-04-07T04:50:56.784Z,15.13
2023-04-07T04:53:26.381Z,9.80
2023-04-07T04:55:54.621Z,12.25
2023-04-07T04:58:23.148Z,12.90
2023-04-07T05:00:51.636Z,11.88
2023-04-07T05:03:19.998Z,7.32
2023-04-07T05:05:49.362Z,12.02
2023-04-07T05:08:17.564Z,8.57
2023-04-07T05:10:47.990Z,18.10
2023-04-07T05:13:16.457Z,12.33
2023-04-07T05:15:44.644Z,9.13
2023-04-07T05:18:12.953Z,27.42
2023-04-07T05:20:41.558Z,31.25
2023-04-07T05:23:09.692Z,27.25
2023-04-07T05:25:38.012Z,25.88
2023-04-07T05:28:07.854Z,30.50
2023-04-07T05:30:35.965Z,18.63
2023-04-07T05:33:04.088Z,44.28
2023-04-07T05:35:32.316Z,26.33
2023-04-07T05:38:00.664Z,35.75
2023-04-07T05:40:30.285Z,49.05
2023-04-07T05:42:58.502Z,44.53
2023-04-07T05:45:28.099Z,21.10
2023-04-07T05:47:56.499Z,22.67
2023-04-07T05:50:24.729Z,27.38
2023-04-07T05:52:52.948Z,21.48
2023-04-07T05:55:21.608Z,22.38
2023-04-07T05:57:50.092Z,19.55
2023-04-07T06:00:19.604Z,33.20
2023-04-07T06:02:49.349Z,19.50
2023-04-07T06:05:17.867Z,44.47
2023-04-07T06:07:46.028Z,23.05
2023-04-07T06:10:14.282Z,22.48
2023-04-07T06:12:42.536Z,29.20
2023-04-07T06:15:11.243Z,15.10
2023-04-07T06:17:39.390Z,24.58
2023-04-07T06:20:10.037Z,16.75
2023-04-07T06:22:38.178Z,22.90
2023-04-07T06:25:07.185Z,18.90
2023-04-07T06:27:35.512Z,24.95
2023-04-07T06:30:03.659Z,32.47
2023-04-07T06:32:31.994Z,31.60
2023-04-07T06:35:00.211Z,35.67
2023-04-07T06:37:29.844Z,35.47
2023-04-07T06:39:57.910Z,32.28
2023-04-07T06:42:26.354Z,35.25
2023-04-07T06:44:54.685Z,25.63
2023-04-07T06:47:22.875Z,21.77
2023-04-07T06:49:51.208Z,32.08
2023-04-07T06:52:19.365Z,20.38
2023-04-07T06:54:48.873Z,18.83
2023-04-07T06:57:17.479Z,15.95
2023-04-07T06:59:45.689Z,10.63
2023-04-07T07:02:14.024Z,19.15
2023-04-07T07:04:42.394Z,11.25
2023-04-07T07:07:10.524Z,11.95
2023-04-07T07:09:38.600Z,8.40
2023-04-07T07:12:08.525Z,19.13
2023-04-07T07:14:36.723Z,18.23
2023-04-07T07:17:04.966Z,11.93
2023-04-07T07:19:33.166Z,14.05
2023-04-07T07:22:04.187Z,20.55
2023-04-07T07:24:34.075Z,9.95
2023-04-07T07:27:03.619Z,33.05
2023-04-07T07:29:34.240Z,20.95
2023-04-07T07:32:02.633Z,15.55
2023-04-07T07:34:31.314Z,17.40
2023-04-07T07:37:00.041Z,17.35
2023-04-07T07:39:28.531Z,12.55
2023-04-07T07:41:57.355Z,11.07
2023-04-07T07:44:25.529Z,10.85
2023-04-07T07:46:55.376Z,10.30
2023-04-07T07:49:23.696Z,11.77
2023-04-07T07:51:51.895Z,6.85
2023-04-07T07:54:20.071Z,8.55
2023-04-07T07:56:48.561Z,10.15
2023-04-07T07:59:17.842Z,10.50
2023-04-07T08:01:46.079Z,9.43
2023-04-07T08:04:15.959Z,7.90
2023-04-07T08:06:44.127Z,13.48
2023-04-07T08:09:12.294Z,12.05
2023-04-07T08:11:40.380Z,12.05
2023-04-07T08:14:09.874Z,11.32
2023-04-07T08:16:38.355Z,13.63
2023-04-07T08:19:06.485Z,5.05
2023-04-07T08:21:36.129Z,7.72
2023-04-07T08:24:04.616Z,6.75
2023-04-07T08:26:32.902Z,4.53
2023-04-07T08:29:01.288Z,15.82
2023-04-07T08:31:29.578Z,8.73
2023-04-07T08:33:59.128Z,10.43
2023-04-07T08:36:28.098Z,13.50
2023-04-07T08:38:58.737Z,5.43
2023-04-07T08:41:35.004Z,7.88
2023-04-07T08:44:03.601Z,7.60
2023-04-07T08:46:32.308Z,8.25
2023-04-07T08:49:01.957Z,8.20
2023-04-07T08:51:31.877Z,8.20
2023-04-07T08:54:08.516Z,15.10
2023-04-07T08:56:40.923Z,11.90
2023-04-07T08:59:11.556Z,17.27
2023-04-07T09:01:41.183Z,6.17
2023-04-07T09:04:11.658Z,6.50
2023-04-07T09:06:40.088Z,12.90
2023-04-07T09:09:09.693Z,11.35
2023-04-07T09:11:40.271Z,11.52
2023-04-07T09:14:08.920Z,9.93
2023-04-07T09:16:37.302Z,11.88
2023-04-07T09:19:06.441Z,9.93
2023-04-07T09:21:49.897Z,12.50
2023-04-07T09:24:31.970Z,19.42
2023-04-07T09:27:17.054Z,8.88
2023-04-07T09:29:47.768Z,14.63
2023-04-07T09:32:36.679Z,14.02
2023-04-07T09:35:05.085Z,9.25
2023-04-07T09:37:33.245Z,8.55
2023-04-07T09:40:03.550Z,11.68
2023-04-07T09:42:32.755Z,11.27
2023-04-07T09:45:01.730Z,11.13
2023-04-07T09:47:30.932Z,9.35
2023-04-07T09:50:02.054Z,8.70
2023-04-07T09:52:52.013Z,7.47
2023-04-07T09:55:22.990Z,12.40
2023-04-07T09:57:52.058Z,7.88
2023-04-07T10:00:20.835Z,15.40
2023-04-07T10:02:51.401Z,10.60
2023-04-07T10:05:21.770Z,10.23
2023-04-07T10:07:50.311Z,8.65
2023-04-07T10:10:18.514Z,10.90
2023-04-07T10:12:51.216Z,12.15
2023-04-07T10:15:19.447Z,20.60
2023-04-07T10:17:49.510Z,8.43
2023-04-07T10:20:21.215Z,10.82
2023-04-07T10:22:51.614Z,10.13
2023-04-07T10:25:22.731Z,10.02
2023-04-07T10:27:54.907Z,10.88
2023-04-07T10:30:27.182Z,10.50
2023-04-07T10:32:56.378Z,11.02
2023-04-07T10:35:25.304Z,17.25
2023-04-07T10:38:16.417Z,13.77
2023-04-07T10:40:45.005Z,11.50
2023-04-07T10:43:25.176Z,8.18
2023-04-07T10:45:56.607Z,16.58
2023-04-07T10:51:20.635Z,9.38
2023-04-07T10:54:23.014Z,12.50
2023-04-07T10:57:12.049Z,8.90
2023-04-07T10:59:47.108Z,9.18
2023-04-07T11:02:35.375Z,9.38
2023-04-07T11:05:04.214Z,4.53
2023-04-07T11:07:50.200Z,17.65
2023-04-07T11:10:19.594Z,12.35
2023-04-07T11:13:01.880Z,10.07
2023-04-07T11:15:31.757Z,8.30
2023-04-07T11:18:17.617Z,17.15
2023-04-07T11:20:51.780Z,10.98
2023-04-07T11:23:23.179Z,20.38
2023-04-07T11:25:53.068Z,9.07
2023-04-07T11:28:21.459Z,12.10
2023-04-07T11:30:54.144Z,10.13
2023-04-07T11:33:24.115Z,8.93
2023-04-07T11:35:55.746Z,9.13
2023-04-07T11:38:26.189Z,11.20
2023-04-07T11:40:55.325Z,5.72
2023-04-07T11:43:26.032Z,10.45
2023-04-07T11:46:10.887Z,11.80
2023-04-07T11:48:42.057Z,7.38
2023-04-07T11:51:18.418Z,11.23
2023-04-07T11:53:47.520Z,17.92
2023-04-07T11:56:18.957Z,7.45
2023-04-07T11:58:50.997Z,10.80
2023-04-07T12:01:21.044Z,4.93
2023-04-07T12:04:02.230Z,7.53
2023-04-07T12:06:34.896Z,8.77
2023-04-07T12:09:04.510Z,5.60
2023-04-07T12:11:33.104Z,9.20
2023-04-07T12:14:04.951Z,3.38
2023-04-07T12:16:39.673Z,5.60
2023-04-07T12:19:07.872Z,9.70
2023-04-07T12:21:35.998Z,15.30
2023-04-07T12:24:04.316Z,5.22
2023-04-07T12:26:32.405Z,17.92
2023-04-07T12:29:05.287Z,7.22
2023-04-07T12:31:35.303Z,10.43
2023-04-07T12:34:04.287Z,10.95
2023-04-07T12:36:33.422Z,17.95
2023-04-07T12:39:01.591Z,11.45
2023-04-07T12:41:29.946Z,12.68
2023-04-07T12:43:58.162Z,13.32
2023-04-07T12:46:27.017Z,6.47
2023-04-07T12:48:56.763Z,10.32
2023-04-07T12:51:25.241Z,7.30
2023-04-07T12:53:54.324Z,11.50
2023-04-07T12:56:24.242Z,13.23
2023-04-07T12:58:53.562Z,11.25
2023-04-07T13:01:21.832Z,5.07
2023-04-07T13:03:50.171Z,13.20
2023-04-07T13:06:20.396Z,11.15
2023-04-07T13:08:48.473Z,13.68
2023-04-07T13:11:16.684Z,14.15
2023-04-07T13:13:44.948Z,8.73
2023-04-07T13:16:13.177Z,10.77
2023-04-07T13:18:41.303Z,4.72
2023-04-07T13:23:43.568Z,7.45
2023-04-07T13:26:11.953Z,27.73
2023-04-07T13:28:40.058Z,19.10
2023-04-07T13:31:08.198Z,8.70
2023-04-07T13:33:37.770Z,6.97
2023-04-07T13:36:05.972Z,14.23
2023-04-07T13:38:34.100Z,3.67
2023-04-07T13:41:04.190Z,2.75
2023-04-07T13:43:32.410Z,18.77
2023-04-07T13:46:00.530Z,7.97
2023-04-07T13:48:28.693Z,10.65
2023-04-07T13:50:56.701Z,7.57
2023-04-07T13:53:25.041Z,4.20
2023-04-07T13:55:53.135Z,2.83
2023-04-07T13:58:22.650Z,3.55
2023-04-07T14:00:50.875Z,6.75
2023-04-07T14:03:19.102Z,9.43
2023-04-07T14:05:47.329Z,11.10
2023-04-07T14:08:15.715Z,5.32
2023-04-07T14:10:43.775Z,7.60
2023-04-07T14:13:12.177Z,10.05
2023-04-07T14:15:41.761Z,8.02
2023-04-07T14:18:10.050Z,4.40
2023-04-07T14:20:38.520Z,3.03
2023-04-07T14:23:06.655Z,4.10
2023-04-07T14:25:34.761Z,3.85
2023-04-07T14:28:03.006Z,8.93
2023-04-07T14:30:31.250Z,10.57
2023-04-07T14:33:02.437Z,5.00
2023-04-07T14:35:31.988Z,7.95
2023-04-07T14:38:00.480Z,11.57
2023-04-07T14:40:28.645Z,8.25
2023-04-07T14:45:30.051Z,2.25
2023-04-07T14:47:58.091Z,3.70
2023-04-07T14:50:28.118Z,3.95
2023-04-07T14:52:57.891Z,6.22
2023-04-07T14:55:26.308Z,11.25
2023-04-07T14:57:54.408Z,7.28
2023-04-07T15:00:22.805Z,9.43
2023-04-07T15:02:51.160Z,6.85
2023-04-07T15:05:19.540Z,6.13
2023-04-07T15:07:50.759Z,7.40
2023-04-07T15:10:19.167Z,3.50
2023-04-07T15:12:48.762Z,6.25
2023-04-07T15:15:17.510Z,7.47
2023-04-07T15:17:45.783Z,9.32
2023-04-07T15:20:14.150Z,4.57
2023-04-07T15:22:42.372Z,5.75
2023-04-07T15:25:11.875Z,3.95
2023-04-07T15:27:40.030Z,7.32
2023-04-07T15:30:09.500Z,4.07
2023-04-07T15:32:37.681Z,8.40
2023-04-07T15:35:06.621Z,5.13
2023-04-07T15:37:34.750Z,7.22
2023-04-07T15:40:02.886Z,4.97
2023-04-07T15:42:35.678Z,8.65
2023-04-07T15:45:03.878Z,4.00
2023-04-07T15:47:32.043Z,7.18
2023-04-07T15:50:00.250Z,6.93
2023-04-07T15:52:28.683Z,3.88
2023-04-07T15:54:57.145Z,2.50
2023-04-07T15:57:26.539Z,2.30
2023-04-07T15:59:57.054Z,5.38
2023-04-07T16:02:25.388Z,4.13
2023-04-07T16:04:54.461Z,2.97
2023-04-07T16:07:26.097Z,10.85
2023-04-07T16:12:22.595Z,2.92
2023-04-07T16:14:51.125Z,5.05
2023-04-07T16:17:20.824Z,4.55
2023-04-07T16:19:48.969Z,7.93
2023-04-07T16:22:17.067Z,8.18
2023-04-07T16:24:45.331Z,5.88
2023-04-07T16:27:13.436Z,4.35
2023-04-07T16:29:41.654Z,2.28
2023-04-07T16:32:09.832Z,5.95
2023-04-07T16:34:39.555Z,10.18
2023-04-07T16:37:07.775Z,6.80
2023-04-07T16:39:35.928Z,4.75
2023-04-07T16:42:04.260Z,2.40
2023-04-07T16:44:33.009Z,4.97
2023-04-07T16:47:02.939Z,3.92
2023-04-07T16:49:31.530Z,6.57
2023-04-07T16:52:01.106Z,5.88
2023-04-07T16:54:29.247Z,6.72
2023-04-07T16:56:57.347Z,3.03
2023-04-07T16:59:25.639Z,5.88
2023-04-07T17:01:53.835Z,6.35
2023-04-07T17:04:22.177Z,4.13
2023-04-07T17:06:50.322Z,9.15
2023-04-07T17:09:20.163Z,7.20
2023-04-07T17:11:48.356Z,9.55
2023-04-07T17:14:16.606Z,8.32
2023-04-07T17:16:44.884Z,6.68
2023-04-07T17:19:13.108Z,13.48
2023-04-07T17:21:41.328Z,8.18
2023-04-07T17:24:09.381Z,9.98
2023-04-07T17:26:38.943Z,11.32
2023-04-07T17:29:07.078Z,5.63
2023-04-07T17:31:36.212Z,16.42
2023-04-07T17:34:04.631Z,6.93
2023-04-07T17:36:33.856Z,8.95
2023-04-07T17:39:03.144Z,12.63
2023-04-07T17:41:32.797Z,9.18
2023-04-07T17:44:02.862Z,10.95
2023-04-07T17:46:31.320Z,10.85
2023-04-07T17:48:59.817Z,8.38
2023-04-07T17:51:28.963Z,9.13
2023-04-07T17:53:57.060Z,12.68
2023-04-07T17:56:25.709Z,9.35
2023-04-07T17:58:53.874Z,6.57
2023-04-07T18:01:23.602Z,11.68
2023-04-07T18:03:53.945Z,8.13
2023-04-07T18:06:22.801Z,12.98
2023-04-07T18:08:51.112Z,7.97
2023-04-07T18:11:19.479Z,10.65
2023-04-07T18:13:47.940Z,12.88
2023-04-07T18:16:21.436Z,9.55
2023-04-07T18:18:52.740Z,7.22
2023-04-07T18:21:21.437Z,14.43
2023-04-07T18:23:49.832Z,10.80
2023-04-07T18:26:18.206Z,12.82
2023-04-07T18:28:46.570Z,9.35
2023-04-07T18:31:15.454Z,10.75
2023-04-07T18:33:43.821Z,7.20
2023-04-07T18:36:14.514Z,18.20
2023-04-07T18:38:42.597Z,7.10
2023-04-07T18:41:12.706Z,16.88
2023-04-07T18:43:40.996Z,16.00
2023-04-07T18:46:09.257Z,16.85
2023-04-07T18:48:37.528Z,12.07
2023-04-07T18:51:05.812Z,15.77
2023-04-07T18:53:35.442Z,10.77
2023-04-07T18:56:03.748Z,8.57
2023-04-07T18:58:32.020Z,13.15
2023-04-07T19:01:00.305Z,14.30
2023-04-07T19:03:28.886Z,13.13
2023-04-07T19:05:59.062Z,12.23
2023-04-07T19:08:27.213Z,15.20
2023-04-07T19:10:56.818Z,16.20
2023-04-07T19:13:24.989Z,22.25
2023-04-07T19:15:53.178Z,13.93
2023-04-07T19:18:21.459Z,14.73
2023-04-07T19:20:49.591Z,12.95
2023-04-07T19:23:17.803Z,8.60
2023-04-07T19:25:46.179Z,9.48
2023-04-07T19:28:15.957Z,12.88
2023-04-07T19:30:44.249Z,7.82
2023-04-07T19:33:12.861Z,9.18
2023-04-07T19:35:41.498Z,10.88
2023-04-07T19:38:09.849Z,11.07
2023-04-07T19:40:38.083Z,10.32
2023-04-07T19:43:07.286Z,10.98
2023-04-07T19:45:36.981Z,12.00
2023-04-07T19:48:05.236Z,9.75
2023-04-07T19:50:33.337Z,10.23
2023-04-07T19:53:01.590Z,18.00
2023-04-07T19:55:30.689Z,17.88
2023-04-07T19:57:58.866Z,7.95
2023-04-07T20:00:28.190Z,11.63
2023-04-07T20:02:57.878Z,7.10
2023-04-07T20:05:26.341Z,7.85
2023-04-07T20:07:54.493Z,8.88
2023-04-07T20:10:22.539Z,11.43
2023-04-07T20:12:50.674Z,13.98
2023-04-07T20:15:18.932Z,19.00
2023-04-07T20:17:48.051Z,10.95
2023-04-07T20:20:18.378Z,9.68
2023-04-07T20:22:46.808Z,10.25
2023-04-07T20:25:14.985Z,8.52
2023-04-07T20:27:45.493Z,10.30
2023-04-07T20:30:13.755Z,10.73
2023-04-07T20:32:41.970Z,9.90
2023-04-07T20:35:12.088Z,13.00
2023-04-07T20:37:42.199Z,8.05
2023-04-07T20:40:11.326Z,9.27
2023-04-07T20:42:39.658Z,12.60
2023-04-07T20:45:08.462Z,12.95
2023-04-07T20:47:37.280Z,15.25
2023-04-07T20:50:06.115Z,18.05
2023-04-07T20:52:36.899Z,16.02
2023-04-07T20:55:07.749Z,12.95
2023-04-07T20:57:36.389Z,14.93
2023-04-07T21:00:06.084Z,7.88
2023-04-07T21:02:34.515Z,14.05
2023-04-07T21:05:03.726Z,14.18
2023-04-07T21:07:31.944Z,11.48
2023-04-07T21:10:00.161Z,10.25
2023-04-07T21:12:29.594Z,13.35
2023-04-07T21:14:57.656Z,6.90
2023-04-07T21:17:25.880Z,9.55
2023-04-07T21:19:54.013Z,8.85
2023-04-07T21:22:22.126Z,11.13
2023-04-07T21:24:50.191Z,10.35
2023-04-07T21:27:19.927Z,8.50
2023-04-07T21:29:49.709Z,5.32
2023-04-07T21:32:17.921Z,8.82
2023-04-07T21:34:46.056Z,9.27
2023-04-07T21:37:14.160Z,11.32
2023-04-07T21:39:42.382Z,14.45
2023-04-07T21:42:10.558Z,12.82
2023-04-07T21:44:39.104Z,8.57
2023-04-07T21:47:08.730Z,5.38
2023-04-07T21:49:39.054Z,12.55
2023-04-07T21:52:07.970Z,6.53
2023-04-07T21:54:36.518Z,12.45
2023-04-07T21:57:04.932Z,10.88
2023-04-07T21:59:33.072Z,8.00
2023-04-07T22:02:01.246Z,5.72
2023-04-07T22:04:30.932Z,11.02
2023-04-07T22:06:59.301Z,8.90
2023-04-07T22:09:27.654Z,12.82
2023-04-07T22:11:56.109Z,12.15
2023-04-07T22:14:25.092Z,17.90
2023-04-07T22:16:53.249Z,17.20
2023-04-07T22:19:21.631Z,13.38
2023-04-07T22:21:51.184Z,8.95
2023-04-07T22:24:19.848Z,15.77
2023-04-07T22:26:48.093Z,18.35
2023-04-07T22:29:16.271Z,11.32
2023-04-07T22:31:44.517Z,10.65
2023-04-07T22:34:12.766Z,18.70
2023-04-07T22:36:40.878Z,15.65
2023-04-07T22:39:11.008Z,11.60
2023-04-07T22:41:39.295Z,15.40
2023-04-07T22:44:07.434Z,24.50
2023-04-07T22:46:35.629Z,13.35
2023-04-07T22:49:03.813Z,13.00
2023-04-07T22:51:32.035Z,14.18
2023-04-07T22:54:00.119Z,18.58
2023-04-07T22:56:29.696Z,18.05
2023-04-07T22:59:05.511Z,14.68
2023-04-07T23:01:34.298Z,17.17
2023-04-07T23:04:02.468Z,17.08
2023-04-07T23:06:31.588Z,15.52
2023-04-07T23:08:59.797Z,12.98
2023-04-07T23:11:29.366Z,10.68
2023-04-07T23:13:57.430Z,11.82
2023-04-07T23:16:26.252Z,13.20
2023-04-07T23:18:54.333Z,14.07
2023-04-07T23:21:22.491Z,12.52
2023-04-07T23:23:50.697Z,9.32
2023-04-07T23:26:18.735Z,14.73
2023-04-07T23:28:49.182Z,11.85
2023-04-07T23:31:17.842Z,10.43
2023-04-07T23:33:46.916Z,9.82
2023-04-07T23:36:15.130Z,11.68
2023-04-07T23:38:43.394Z,10.60
2023-04-07T23:41:11.708Z,10.82
2023-04-07T23:43:39.881Z,12.38
2023-04-07T23:46:09.445Z,11.68
2023-04-07T23:48:37.758Z,16.90
2023-04-07T23:51:06.253Z,9.68
2023-04-07T23:53:34.417Z,14.50
2023-04-07T23:56:02.882Z,8.30
2023-04-07T23:58:31.022Z,11.35
